Time;durP1;ratioP1;P1;durP2;ratioP2;P2;SDS_P1;SDS_P2;PMS_P1;PMS_P2;Temp;Humidity;BMP_temperature;BMP_pressure;BME280_temperature;BME280_humidity;BME280_pressure;Samples;Min_cycle;Max_cycle;Signal;HPM_P1;HPM_P2
2024/03/31 00:00:05;;;;;;;14.45;3.42;;;16.70;69.50;16.80;98823.00;;;;4890362;28;114266;-65
2024/03/31 00:02:31;;;;;;;13.73;4.13;;;16.70;69.30;16.80;98808.00;;;;4890093;28;93098;-64
2024/03/31 00:04:57;;;;;;;10.95;3.72;;;16.70;69.20;16.80;98818.00;;;;4891450;28;107966;-64
2024/03/31 00:07:22;;;;;;;19.40;5.50;;;16.70;69.10;16.80;98811.00;;;;4888757;28;121754;-64
2024/03/31 00:09:48;;;;;;;12.05;4.22;;;16.70;69.10;16.80;98808.00;;;;4891765;28;98318;-64
2024/03/31 00:12:15;;;;;;;9.73;3.90;;;16.70;69.10;16.80;98810.00;;;;4891015;28;92950;-64
2024/03/31 00:14:41;;;;;;;24.13;4.15;;;16.70;69.10;16.80;98805.00;;;;4894338;28;93724;-66
2024/03/31 00:17:08;;;;;;;21.77;4.80;;;16.70;69.10;16.80;98809.00;;;;4892062;28;94299;-66
2024/03/31 00:19:33;;;;;;;14.07;4.63;;;16.70;69.20;16.80;98810.00;;;;4891783;28;92974;-64
2024/03/31 00:21:59;;;;;;;9.93;3.72;;;16.70;69.10;16.70;98813.00;;;;4892490;28;110549;-64
2024/03/31 00:24:26;;;;;;;13.98;2.67;;;16.70;69.20;16.70;98808.00;;;;4891882;28;109150;-64
2024/03/31 00:26:53;;;;;;;22.75;3.78;;;16.60;69.20;16.60;98808.00;;;;4892621;28;100839;-64
2024/03/31 00:29:18;;;;;;;15.15;4.30;;;16.60;69.20;16.60;98814.00;;;;4889058;28;108276;-66
2024/03/31 00:31:45;;;;;;;7.68;3.67;;;16.60;69.30;16.50;98802.00;;;;4891025;28;92251;-64
2024/03/31 00:34:11;;;;;;;4.20;3.10;;;16.50;69.30;16.50;98812.00;;;;4889200;28;93055;-64
2024/03/31 00:36:37;;;;;;;11.32;3.92;;;16.50;69.40;16.50;98812.00;;;;4891480;28;106908;-66
2024/03/31 00:39:02;;;;;;;20.98;4.13;;;16.40;69.40;16.40;98815.00;;;;4890695;28;116326;-64
2024/03/31 00:41:28;;;;;;;5.97;3.30;;;16.40;69.50;16.40;98810.00;;;;4895294;28;108206;-64
2024/03/31 00:43:54;;;;;;;7.72;2.78;;;16.40;69.50;16.40;98812.00;;;;4891081;28;109125;-64
2024/03/31 00:46:19;;;;;;;7.75;3.15;;;16.40;69.50;16.30;98806.00;;;;4889250;28;123263;-64
2024/03/31 00:48:45;;;;;;;17.70;4.43;;;16.40;69.60;16.30;98805.00;;;;4890149;28;120810;-65
2024/03/31 00:51:11;;;;;;;13.20;4.07;;;16.30;69.50;16.30;98803.00;;;;4891364;28;110355;-65
2024/03/31 00:53:36;;;;;;;17.58;3.80;;;16.40;69.50;16.30;98804.00;;;;4890160;28;107611;-64
2024/03/31 00:56:02;;;;;;;10.30;3.80;;;16.30;69.40;16.30;98801.00;;;;4891200;28;123664;-64
2024/03/31 00:58:28;;;;;;;14.80;3.20;;;16.30;69.50;16.30;98804.00;;;;4889150;28;111930;-65
2024/03/31 01:00:55;;;;;;;10.20;3.53;;;16.20;69.50;16.20;98802.00;;;;4890907;28;92963;-64
2024/03/31 01:03:28;;;;;;;14.63;3.35;;;16.20;69.50;16.20;98811.00;;;;4887599;28;93829;-64
2024/03/31 01:06:00;;;;;;;15.57;3.97;;;16.20;69.50;16.20;98802.00;;;;4891817;28;93127;-64
2024/03/31 01:08:27;;;;;;;11.52;4.13;;;16.20;69.50;16.20;98812.00;;;;4889022;28;112055;-64
2024/03/31 01:10:54;;;;;;;16.90;4.18;;;16.10;69.70;16.10;98813.00;;;;4890770;28;92778;-64
2024/03/31 01:13:21;;;;;;;8.70;3.30;;;16.00;70.10;16.00;98806.00;;;;4890922;28;93021;-65
2024/03/31 01:15:47;;;;;;;14.23;4.43;;;15.90;70.40;15.90;98807.00;;;;4891125;28;93899;-64
2024/03/31 01:18:13;;;;;;;25.10;5.55;;;15.90;70.80;15.80;98800.00;;;;4889933;28;114243;-65
2024/03/31 01:20:39;;;;;;;17.77;7.35;;;15.80;71.30;15.60;98797.00;;;;4892329;28;109526;-64
2024/03/31 01:23:07;;;;;;;28.23;12.85;;;15.60;71.80;15.50;98799.00;;;;4890766;28;93037;-64
2024/03/31 01:25:36;;;;;;;20.27;12.65;;;15.50;72.30;15.40;98799.00;;;;4886880;28;102866;-64
2024/03/31 01:28:02;;;;;;;22.95;13.30;;;15.40;72.80;15.20;98802.00;;;;4889261;28;94363;-64
2024/03/31 01:30:28;;;;;;;23.52;12.38;;;15.30;73.10;15.10;98791.00;;;;4888531;28;93099;-65
2024/03/31 01:32:55;;;;;;;17.45;9.93;;;15.20;73.70;15.00;98783.00;;;;4891396;28;106424;-64
2024/03/31 01:35:21;;;;;;;18.15;8.77;;;15.00;74.00;14.90;98795.00;;;;4889213;28;100733;-66
2024/03/31 01:37:51;;;;;;;27.55;9.70;;;14.90;74.50;14.80;98783.00;;;;4890123;28;121672;-64
2024/03/31 01:40:17;;;;;;;14.88;5.40;;;14.80;75.40;14.70;98796.00;;;;4893175;28;101770;-64
2024/03/31 01:42:47;;;;;;;12.63;5.07;;;14.70;75.90;14.50;98783.00;;;;4890485;28;93086;-64
2024/03/31 01:45:14;;;;;;;12.35;6.00;;;14.60;76.30;14.30;98788.00;;;;4891075;28;92768;-65
2024/03/31 01:47:40;;;;;;;13.93;5.05;;;14.40;76.90;14.20;98788.00;;;;4891950;28;105464;-65
2024/03/31 01:50:06;;;;;;;18.08;4.75;;;14.30;77.30;14.00;98802.00;;;;4891687;28;94499;-65
2024/03/31 01:52:31;;;;;;;7.82;3.90;;;14.10;77.80;13.90;98804.00;;;;4890324;28;99432;-65
2024/03/31 01:54:58;;;;;;;14.70;4.43;;;14.00;78.30;13.80;98798.00;;;;4891420;28;122956;-65
2024/03/31 01:57:24;;;;;;;12.80;3.15;;;13.90;78.70;13.70;98804.00;;;;4886893;28;122339;-66
2024/03/31 01:59:50;;;;;;;5.45;2.75;;;13.70;79.00;13.60;98812.00;;;;4889284;28;108950;-65
2024/03/31 02:02:15;;;;;;;13.13;4.18;;;13.60;79.40;13.50;98811.00;;;;4892427;28;108627;-65
2024/03/31 02:04:41;;;;;;;5.43;3.85;;;13.50;79.80;13.40;98803.00;;;;4894890;28;93253;-65
2024/03/31 02:07:07;;;;;;;9.25;4.57;;;13.50;81.00;13.30;98807.00;;;;4893087;28;121767;-66
2024/03/31 02:09:32;;;;;;;11.63;5.20;;;13.40;80.70;13.20;98792.00;;;;4892639;28;109149;-65
2024/03/31 02:11:58;;;;;;;11.48;4.47;;;13.30;81.10;13.20;98786.00;;;;4895581;28;109292;-65
2024/03/31 02:14:24;;;;;;;12.88;4.28;;;13.20;81.50;13.10;98783.00;;;;4891646;28;123101;-65
2024/03/31 02:16:49;;;;;;;9.43;3.73;;;13.10;81.90;13.00;98791.00;;;;4893052;28;121966;-65
2024/03/31 02:19:15;;;;;;;13.88;3.80;;;13.10;82.30;13.00;98786.00;;;;4892007;28;110652;-65
2024/03/31 02:21:40;;;;;;;8.57;3.73;;;13.00;82.70;12.90;98787.00;;;;4893769;28;92911;-65
2024/03/31 02:24:06;;;;;;;11.07;4.70;;;13.00;83.00;12.90;98785.00;;;;4890232;28;122913;-66
2024/03/31 02:26:34;;;;;;;7.33;4.00;;;13.00;83.30;12.80;98787.00;;;;4890685;28;121958;-65
2024/03/31 02:29:02;;;;;;;8.15;4.25;;;12.90;83.60;12.80;98793.00;;;;4891428;28;92930;-65
2024/03/31 02:31:28;;;;;;;10.60;4.43;;;12.80;83.90;12.70;98794.00;;;;4893442;28;92956;-66
2024/03/31 02:33:54;;;;;;;9.07;4.97;;;12.80;84.40;12.70;98804.00;;;;4892334;28;112632;-65
2024/03/31 02:36:20;;;;;;;6.70;3.40;;;12.80;84.90;12.60;98786.00;;;;4893409;28;121993;-66
2024/03/31 02:38:45;;;;;;;7.60;3.73;;;12.70;85.40;12.60;98801.00;;;;4893302;28;92755;-65
2024/03/31 02:41:11;;;;;;;5.77;3.80;;;12.70;85.80;12.60;98799.00;;;;4892934;28;94248;-65
2024/03/31 02:43:37;;;;;;;10.50;3.80;;;12.60;86.20;12.60;98806.00;;;;4891929;28;121333;-65
2024/03/31 02:46:02;;;;;;;6.10;3.80;;;12.60;87.00;12.60;98817.00;;;;4892826;28;119298;-65
2024/03/31 02:48:28;;;;;;;13.27;3.60;;;12.60;87.20;12.50;98819.00;;;;4889634;28;93356;-65
2024/03/31 02:50:54;;;;;;;13.37;5.33;;;12.50;87.40;12.50;98821.00;;;;4892548;28;107903;-65
2024/03/31 02:53:19;;;;;;;19.33;3.33;;;12.50;88.00;12.50;98818.00;;;;4890613;28;122269;-65
2024/03/31 02:55:45;;;;;;;8.63;3.37;;;12.50;88.50;12.50;98807.00;;;;4893040;28;123852;-65
2024/03/31 02:58:11;;;;;;;7.60;4.10;;;12.50;89.00;12.40;98819.00;;;;4893156;28;110102;-66
2024/03/31 03:00:36;;;;;;;18.40;4.17;;;12.40;89.40;12.40;98814.00;;;;4893413;28;108621;-65
2024/03/31 03:03:02;;;;;;;9.63;3.50;;;12.50;90.00;12.40;98813.00;;;;4872807;28;123249;-65
2024/03/31 03:05:28;;;;;;;6.50;3.07;;;12.50;90.10;12.40;98812.00;;;;4892763;28;122257;-66
2024/03/31 03:07:53;;;;;;;8.17;4.03;;;12.40;90.20;12.40;98814.00;;;;4890797;28;110564;-65
2024/03/31 03:10:19;;;;;;;13.53;5.17;;;12.40;90.50;12.30;98823.00;;;;4892827;28;92952;-65
2024/03/31 03:12:48;;;;;;;13.17;3.87;;;12.40;90.70;12.30;98819.00;;;;4890945;28;122430;-65
2024/03/31 03:15:14;;;;;;;5.70;3.03;;;12.30;90.90;12.30;98816.00;;;;4892481;28;122996;-65
2024/03/31 03:17:39;;;;;;;8.23;3.57;;;12.30;91.10;12.20;98815.00;;;;4893630;28;107233;-66
2024/03/31 03:20:06;;;;;;;19.47;4.03;;;12.30;91.30;12.20;98820.00;;;;4890944;28;110548;-65
2024/03/31 03:22:34;;;;;;;7.53;3.83;;;12.30;91.50;12.20;98818.00;;;;4892291;28;113657;-65
2024/03/31 03:25:00;;;;;;;9.67;4.10;;;12.20;91.70;12.10;98835.00;;;;4892668;28;92870;-65
2024/03/31 03:27:25;;;;;;;12.47;3.70;;;12.20;91.90;12.10;98825.00;;;;4892238;28;93311;-65
2024/03/31 03:29:54;;;;;;;13.80;4.50;;;12.10;92.10;12.00;98821.00;;;;4890148;28;109991;-65
2024/03/31 03:32:20;;;;;;;12.47;3.40;;;12.10;92.30;11.90;98821.00;;;;4894766;28;106391;-65
2024/03/31 03:34:46;;;;;;;5.37;3.27;;;12.00;92.50;11.80;98826.00;;;;4889435;28;122847;-65
2024/03/31 03:37:12;;;;;;;9.50;4.73;;;11.90;92.70;11.80;98820.00;;;;4871297;28;109497;-65
2024/03/31 03:39:39;;;;;;;13.30;3.70;;;11.80;92.90;11.70;98821.00;;;;4890987;28;108430;-65
2024/03/31 03:42:05;;;;;;;9.30;4.20;;;11.80;93.10;11.60;98832.00;;;;4889448;28;94380;-65
2024/03/31 03:44:31;;;;;;;19.23;4.30;;;11.70;93.30;11.60;98828.00;;;;4889368;28;102766;-65
2024/03/31 03:46:57;;;;;;;5.83;3.70;;;11.70;93.40;11.50;98822.00;;;;4891546;28;92320;-65
2024/03/31 03:49:22;;;;;;;9.77;3.40;;;11.60;93.60;11.50;98829.00;;;;4891914;28;108722;-65
2024/03/31 03:51:48;;;;;;;8.17;3.77;;;11.50;93.70;11.40;98825.00;;;;4890264;28;122338;-65
2024/03/31 03:54:14;;;;;;;12.40;4.13;;;11.50;93.90;11.40;98820.00;;;;4891116;28;122694;-65
2024/03/31 03:56:44;;;;;;;14.67;3.20;;;11.40;94.10;11.30;98834.00;;;;4893185;28;110284;-64
2024/03/31 03:59:11;;;;;;;12.50;4.67;;;11.40;94.30;11.30;98828.00;;;;4892384;28;94212;-66
2024/03/31 04:01:37;;;;;;;6.63;2.97;;;11.40;94.60;11.20;98815.00;;;;4891506;28;116335;-64
2024/03/31 04:04:03;;;;;;;17.23;4.77;;;11.30;94.90;11.20;98829.00;;;;4890209;28;93396;-64
2024/03/31 04:06:29;;;;;;;10.27;4.53;;;11.30;95.30;11.20;98832.00;;;;4891865;28;92795;-64
2024/03/31 04:08:55;;;;;;;6.20;3.43;;;11.30;95.60;11.20;98831.00;;;;4891847;28;99170;-64
2024/03/31 04:11:27;;;;;;;10.70;4.13;;;11.20;95.80;11.10;98837.00;;;;4892613;28;122116;-64
2024/03/31 04:13:52;;;;;;;17.70;5.03;;;11.20;96.00;11.10;98837.00;;;;4891069;28;92987;-64
2024/03/31 04:16:18;;;;;;;11.73;4.07;;;11.20;96.10;11.10;98845.00;;;;4890824;28;93057;-65
2024/03/31 04:18:43;;;;;;;16.87;4.53;;;11.20;96.30;11.10;98850.00;;;;4889913;28;109277;-65
2024/03/31 04:21:10;;;;;;;8.57;3.50;;;11.20;96.40;11.10;98843.00;;;;4892392;28;123003;-64
2024/03/31 04:23:36;;;;;;;15.67;3.77;;;11.10;96.50;11.00;98834.00;;;;4891596;28;93055;-65
2024/03/31 04:26:02;;;;;;;11.13;3.17;;;11.10;96.70;11.00;98828.00;;;;4891135;28;93037;-64
2024/03/31 04:28:28;;;;;;;7.33;4.27;;;11.10;96.90;11.00;98827.00;;;;4891478;28;103339;-64
2024/03/31 04:30:54;;;;;;;16.47;4.57;;;11.00;97.10;10.90;98841.00;;;;4893104;28;93607;-64
2024/03/31 04:33:19;;;;;;;5.37;3.33;;;11.00;97.30;10.90;98842.00;;;;4893255;28;93851;-64
2024/03/31 04:35:45;;;;;;;9.10;3.80;;;11.00;97.50;10.80;98842.00;;;;4891898;28;109880;-64
2024/03/31 04:38:11;;;;;;;18.83;6.20;;;10.90;97.60;10.80;98831.00;;;;4889737;28;107959;-64
2024/03/31 04:40:36;;;;;;;17.30;6.77;;;10.90;97.80;10.70;98828.00;;;;4890027;28;123542;-65
2024/03/31 04:43:02;;;;;;;12.93;6.17;;;10.80;98.00;10.70;98840.00;;;;4891339;28;121569;-65
2024/03/31 04:45:29;;;;;;;12.30;5.43;;;10.80;98.20;10.70;98845.00;;;;4893265;28;92837;-65
2024/03/31 04:47:54;;;;;;;16.20;5.80;;;10.80;98.40;10.60;98845.00;;;;4892902;28;92913;-65
2024/03/31 04:50:20;;;;;;;12.57;4.03;;;10.70;98.60;10.60;98833.00;;;;4891551;28;121084;-65
2024/03/31 04:52:46;;;;;;;16.90;5.33;;;10.70;98.80;10.50;98822.00;;;;4891188;28;93830;-65
2024/03/31 04:55:11;;;;;;;13.80;4.73;;;10.60;99.00;10.50;98825.00;;;;4890243;28;110602;-65
2024/03/31 04:57:37;;;;;;;9.33;5.80;;;10.60;99.10;10.50;98835.00;;;;4892611;28;109153;-65
2024/03/31 05:00:04;;;;;;;14.67;4.63;;;10.60;99.40;10.50;98824.00;;;;4892299;28;121132;-64
2024/03/31 05:02:29;;;;;;;13.10;3.73;;;10.50;99.50;10.40;98829.00;;;;4891706;28;92905;-64
2024/03/31 05:04:55;;;;;;;21.33;5.47;;;10.50;99.70;10.40;98821.00;;;;4895508;28;111285;-66
2024/03/31 05:07:21;;;;;;;11.10;4.87;;;10.50;99.80;10.40;98821.00;;;;4888818;28;108223;-66
2024/03/31 05:09:47;;;;;;;15.77;5.27;;;10.50;99.90;10.30;98826.00;;;;4892502;28;92949;-64
2024/03/31 05:12:12;;;;;;;6.43;3.23;;;10.50;99.90;10.30;98821.00;;;;4890387;28;122574;-64
2024/03/31 05:14:38;;;;;;;7.77;4.33;;;10.40;99.90;10.30;98829.00;;;;4892191;28;109923;-65
2024/03/31 05:17:04;;;;;;;13.07;6.27;;;10.40;99.90;10.30;98826.00;;;;4891534;28;108252;-65
2024/03/31 05:19:30;;;;;;;16.37;5.27;;;10.40;99.90;10.30;98835.00;;;;4890376;28;94598;-66
2024/03/31 05:21:56;;;;;;;15.40;4.97;;;10.30;99.90;10.30;98828.00;;;;4889937;28;102372;-65
2024/03/31 05:24:22;;;;;;;11.73;5.30;;;10.40;99.90;10.30;98826.00;;;;4892344;28;92668;-65
2024/03/31 05:26:47;;;;;;;8.23;4.33;;;10.40;99.90;10.40;98829.00;;;;4893020;28;92739;-66
2024/03/31 05:29:19;;;;;;;10.03;4.00;;;10.40;99.90;10.40;98833.00;;;;4890682;28;124711;-66
2024/03/31 05:31:44;;;;;;;10.77;4.43;;;10.40;99.90;10.40;98832.00;;;;4891314;28;94227;-66
2024/03/31 05:34:10;;;;;;;13.87;4.83;;;10.50;99.90;10.40;98839.00;;;;4892719;28;110516;-66
2024/03/31 05:36:36;;;;;;;6.10;4.17;;;10.50;99.90;10.50;98840.00;;;;4890556;28;108055;-65
2024/03/31 05:39:01;;;;;;;7.50;4.07;;;10.50;99.90;10.50;98832.00;;;;4892121;28;110964;-65
2024/03/31 05:41:27;;;;;;;6.60;3.57;;;10.60;99.90;10.50;98830.00;;;;4890405;28;122814;-66
2024/03/31 05:43:53;;;;;;;8.03;4.20;;;10.60;99.90;10.60;98833.00;;;;4889031;28;109909;-66
2024/03/31 05:46:20;;;;;;;10.67;4.00;;;10.60;99.90;10.70;98837.00;;;;4892163;28;108309;-67
2024/03/31 05:48:46;;;;;;;9.73;4.03;;;10.60;99.90;10.70;98835.00;;;;4891565;28;92170;-66
2024/03/31 05:51:11;;;;;;;7.47;3.70;;;10.70;99.90;10.70;98826.00;;;;4893041;28;121450;-66
2024/03/31 05:53:37;;;;;;;13.93;4.20;;;10.80;99.90;10.80;98826.00;;;;4890118;28;110351;-66
2024/03/31 05:56:03;;;;;;;7.50;4.23;;;10.80;99.90;10.90;98821.00;;;;4890016;28;108287;-66
2024/03/31 05:58:29;;;;;;;10.13;4.37;;;10.90;99.90;11.00;98816.00;;;;4890568;28;93643;-66
2024/03/31 06:00:55;;;;;;;13.50;4.33;;;11.00;99.90;11.00;98810.00;;;;4889135;28;122205;-66
2024/03/31 06:03:20;;;;;;;14.67;5.57;;;11.00;99.90;11.20;98808.00;;;;4892424;28;108908;-67
2024/03/31 06:05:46;;;;;;;11.30;4.20;;;11.10;99.90;11.20;98795.00;;;;4890180;28;108020;-66
2024/03/31 06:08:12;;;;;;;7.97;3.53;;;11.20;99.90;11.30;98796.00;;;;4887692;28;93342;-66
2024/03/31 06:10:38;;;;;;;22.27;8.63;;;11.30;99.90;11.50;98788.00;;;;4889398;28;122972;-66
2024/03/31 06:13:05;;;;;;;12.53;4.73;;;11.40;99.90;11.60;98805.00;;;;4892551;28;110713;-67
2024/03/31 06:15:31;;;;;;;14.00;5.23;;;11.60;99.90;11.70;98800.00;;;;4893636;28;92733;-67
2024/03/31 06:17:56;;;;;;;16.50;5.47;;;11.60;99.90;11.80;98811.00;;;;4890274;28;94116;-66
2024/03/31 06:20:22;;;;;;;10.33;4.57;;;11.80;99.90;11.90;98804.00;;;;4889739;28;112368;-66
2024/03/31 06:22:48;;;;;;;18.90;6.13;;;11.80;99.90;12.00;98811.00;;;;4892281;28;93225;-66
2024/03/31 06:25:14;;;;;;;17.10;5.47;;;11.90;99.90;12.10;98809.00;;;;4891724;28;109432;-66
2024/03/31 06:27:41;;;;;;;10.43;4.03;;;12.00;99.90;12.20;98806.00;;;;4890590;28;104734;-66
2024/03/31 06:30:07;;;;;;;25.40;4.20;;;12.20;99.90;12.30;98808.00;;;;4889138;28;119232;-66
2024/03/31 06:32:33;;;;;;;14.63;4.67;;;12.30;99.90;12.40;98811.00;;;;4889674;28;92902;-66
2024/03/31 06:34:59;;;;;;;16.17;4.60;;;12.40;99.90;12.60;98810.00;;;;4890682;28;92961;-66
2024/03/31 06:37:24;;;;;;;20.93;5.00;;;12.50;99.90;12.70;98799.00;;;;4887226;28;93280;-66
2024/03/31 06:39:50;;;;;;;9.63;3.73;;;12.60;99.90;12.80;98801.00;;;;4890496;28;121385;-66
2024/03/31 06:42:16;;;;;;;15.50;6.00;;;12.70;99.90;13.00;98786.00;;;;4888723;28;110397;-66
2024/03/31 06:44:43;;;;;;;11.60;4.60;;;12.90;99.90;13.10;98783.00;;;;4888909;28;93979;-66
2024/03/31 06:47:10;;;;;;;11.20;4.63;;;13.00;99.90;13.30;98796.00;;;;4890337;28;108138;-66
2024/03/31 06:49:36;;;;;;;15.20;4.63;;;13.20;99.90;13.40;98787.00;;;;4884690;28;93108;-66
2024/03/31 06:52:03;;;;;;;13.70;5.03;;;13.30;99.90;13.60;98791.00;;;;4889191;28;93177;-66
2024/03/31 06:54:28;;;;;;;15.53;5.17;;;13.50;99.90;13.80;98799.00;;;;4892292;28;93022;-66
2024/03/31 06:56:54;;;;;;;6.70;4.23;;;13.70;99.90;14.00;98792.00;;;;4891748;28;121083;-66
2024/03/31 06:59:20;;;;;;;9.18;4.35;;;13.80;99.90;14.20;98786.00;;;;4890816;28;120728;-64
2024/03/31 07:01:45;;;;;;;17.02;4.68;;;14.00;99.90;14.30;98782.00;;;;4890710;28;110654;-67
2024/03/31 07:04:12;;;;;;;12.27;4.00;;;14.20;99.90;14.50;98785.00;;;;4889899;28;96454;-64
2024/03/31 07:06:39;;;;;;;11.13;5.20;;;14.40;99.90;14.70;98785.00;;;;4889146;28;94018;-65
2024/03/31 07:09:04;;;;;;;21.27;5.10;;;14.60;99.90;15.00;98785.00;;;;4889905;28;104445;-64
2024/03/31 07:11:30;;;;;;;20.63;6.20;;;14.80;99.70;15.20;98794.00;;;;4890610;28;110320;-66
2024/03/31 07:13:56;;;;;;;10.25;5.78;;;15.00;99.50;15.40;98802.00;;;;4888509;28;107796;-66
2024/03/31 07:16:21;;;;;;;17.33;6.60;;;15.20;99.10;15.60;98802.00;;;;4889058;28;94838;-66
2024/03/31 07:18:47;;;;;;;14.02;5.90;;;15.40;98.80;15.70;98810.00;;;;4888537;28;121010;-66
2024/03/31 07:21:12;;;;;;;12.45;6.47;;;15.60;98.60;15.80;98813.00;;;;4889935;28;109866;-66
2024/03/31 07:23:38;;;;;;;16.27;7.60;;;15.70;97.90;16.00;98808.00;;;;4888037;28;109159;-65
2024/03/31 07:26:04;;;;;;;24.60;8.30;;;15.90;97.60;16.10;98814.00;;;;4890377;28;120603;-65
2024/03/31 07:28:29;;;;;;;25.00;6.80;;;16.00;97.30;16.30;98808.00;;;;4889846;28;122423;-64
2024/03/31 07:30:55;;;;;;;18.55;6.43;;;16.10;97.00;16.50;98801.00;;;;4888300;28;110482;-64
2024/03/31 07:33:21;;;;;;;22.60;9.13;;;16.30;96.40;16.60;98808.00;;;;4887301;28;109896;-64
2024/03/31 07:35:47;;;;;;;22.55;8.27;;;16.40;96.10;16.80;98818.00;;;;4889724;28;94045;-65
2024/03/31 07:38:12;;;;;;;17.13;7.35;;;16.60;95.70;16.90;98811.00;;;;4886758;28;122754;-65
2024/03/31 07:40:38;;;;;;;11.77;6.65;;;16.80;95.00;17.10;98806.00;;;;4888740;28;109560;-65
2024/03/31 07:43:04;;;;;;;16.42;6.30;;;17.00;95.00;17.30;98811.00;;;;4889630;28;108240;-64
2024/03/31 07:45:29;;;;;;;19.40;7.30;;;17.10;94.60;17.40;98802.00;;;;4888096;28;122508;-65
2024/03/31 07:47:55;;;;;;;34.97;7.53;;;17.30;93.60;17.50;98807.00;;;;4891033;28;120694;-65
2024/03/31 07:50:21;;;;;;;18.58;8.25;;;17.40;93.40;17.60;98802.00;;;;4886985;28;110505;-65
2024/03/31 07:52:47;;;;;;;21.75;6.80;;;17.50;93.30;17.70;98815.00;;;;4888313;28;94313;-65
2024/03/31 07:55:13;;;;;;;15.40;6.60;;;17.60;93.10;17.80;98810.00;;;;4888845;28;93704;-64
2024/03/31 07:57:39;;;;;;;19.13;7.07;;;17.70;92.50;17.80;98816.00;;;;4884552;28;122794;-65
2024/03/31 08:00:06;;;;;;;14.55;6.50;;;17.70;92.40;18.00;98820.00;;;;4889215;28;101643;-65
2024/03/31 08:02:32;;;;;;;13.80;7.45;;;17.80;92.30;18.10;98822.00;;;;4889845;28;93174;-64
2024/03/31 08:04:57;;;;;;;22.50;8.00;;;18.00;91.90;18.30;98838.00;;;;4887765;28;104327;-65
2024/03/31 08:07:23;;;;;;;23.35;7.28;;;18.10;91.60;18.40;98842.00;;;;4868348;28;113729;-65
2024/03/31 08:09:49;;;;;;;13.65;6.10;;;18.20;90.40;18.40;98857.00;;;;4886718;28;111355;-65
2024/03/31 08:12:15;;;;;;;25.23;8.15;;;18.30;90.20;18.50;98877.00;;;;4881475;28;95415;-65
2024/03/31 08:14:41;;;;;;;41.35;9.82;;;18.40;90.20;18.50;98875.00;;;;4888830;28;120626;-64
2024/03/31 08:17:06;;;;;;;23.15;8.38;;;18.40;89.90;18.40;98876.00;;;;4886581;28;114008;-64
2024/03/31 08:19:32;;;;;;;16.85;8.32;;;18.40;90.10;18.30;98867.00;;;;4889664;28;93028;-64
2024/03/31 08:21:58;;;;;;;16.50;8.70;;;18.30;90.10;18.20;98859.00;;;;4887997;28;94201;-65
2024/03/31 08:24:23;;;;;;;26.83;8.45;;;18.20;90.30;18.20;98867.00;;;;4887882;28;122436;-64
2024/03/31 08:26:49;;;;;;;22.77;9.38;;;18.10;90.40;18.10;98865.00;;;;4888718;28;93412;-64
2024/03/31 08:29:19;;;;;;;22.50;10.18;;;18.10;90.10;18.10;98866.00;;;;4888429;28;104867;-65
2024/03/31 08:31:46;;;;;;;18.85;7.50;;;18.10;90.20;18.20;98864.00;;;;4887296;28;93042;-65
2024/03/31 08:34:12;;;;;;;26.23;8.77;;;18.10;90.10;18.30;98859.00;;;;4886775;28;112979;-65
2024/03/31 08:36:38;;;;;;;19.02;10.02;;;18.20;90.20;18.50;98861.00;;;;4884294;28;123601;-65
2024/03/31 08:39:03;;;;;;;24.38;8.70;;;18.40;89.80;18.60;98863.00;;;;4885798;28;109982;-66
2024/03/31 08:41:45;;;;;;;18.67;8.80;;;18.50;89.40;18.70;98863.00;;;;4889458;28;92907;-65
2024/03/31 08:44:16;;;;;;;26.30;9.25;;;18.60;89.10;18.80;98867.00;;;;4887801;28;93193;-65
2024/03/31 08:46:42;;;;;;;21.95;9.27;;;18.70;88.80;19.00;98858.00;;;;4888865;28;94015;-65
2024/03/31 08:49:10;;;;;;;26.25;10.25;;;18.80;89.30;19.10;98855.00;;;;4887095;28;93717;-65
2024/03/31 08:51:36;;;;;;;24.05;8.45;;;19.00;87.40;19.20;98858.00;;;;4884532;28;95054;-65
2024/03/31 08:54:01;;;;;;;28.52;10.32;;;19.00;86.80;19.30;98858.00;;;;4887211;28;114688;-65
2024/03/31 08:56:27;;;;;;;23.30;10.10;;;19.20;86.40;19.30;98868.00;;;;4885959;28;125313;-65
2024/03/31 08:58:54;;;;;;;29.60;9.02;;;19.20;86.50;19.50;98867.00;;;;4887043;28;111473;-65
2024/03/31 09:01:21;;;;;;;15.93;9.05;;;19.30;86.60;19.70;98872.00;;;;4887833;28;93042;-65
2024/03/31 09:03:47;;;;;;;19.67;10.13;;;19.50;86.60;19.90;98858.00;;;;4887727;28;102759;-67
2024/03/31 09:06:13;;;;;;;23.65;9.25;;;19.70;85.20;20.10;98865.00;;;;4883622;28;115899;-65
2024/03/31 09:08:38;;;;;;;23.90;9.23;;;19.90;84.40;20.20;98849.00;;;;4886493;28;112492;-65
2024/03/31 09:11:07;;;;;;;19.98;9.70;;;20.00;84.00;20.50;98870.00;;;;4884614;28;108493;-65
2024/03/31 09:13:35;;;;;;;21.25;8.68;;;20.20;83.00;20.60;98870.00;;;;4884624;28;111226;-65
2024/03/31 09:16:02;;;;;;;19.17;8.30;;;20.40;82.30;20.80;98865.00;;;;4889943;28;93677;-65
2024/03/31 09:18:27;;;;;;;23.48;8.27;;;20.50;81.00;20.90;98880.00;;;;4886918;28;94426;-64
2024/03/31 09:20:54;;;;;;;14.15;8.38;;;20.70;79.90;21.00;98890.00;;;;4889484;28;100644;-65
2024/03/31 09:23:20;;;;;;;24.00;9.20;;;20.80;78.90;21.00;98882.00;;;;4883363;28;115516;-64
2024/03/31 09:25:47;;;;;;;21.85;8.93;;;20.90;78.10;21.10;98878.00;;;;4890051;28;104912;-66
2024/03/31 09:28:14;;;;;;;34.50;9.55;;;20.90;77.70;21.30;98884.00;;;;4887757;28;100935;-65
2024/03/31 09:30:40;;;;;;;20.98;8.73;;;21.00;77.60;21.50;98891.00;;;;4886738;28;93649;-65
2024/03/31 09:33:06;;;;;;;30.10;9.35;;;21.20;77.20;21.70;98885.00;;;;4886144;28;122993;-65
2024/03/31 09:35:32;;;;;;;23.30;8.68;;;21.40;76.10;21.80;98883.00;;;;4877178;28;123658;-65
2024/03/31 09:37:58;;;;;;;15.68;8.98;;;21.50;74.30;21.80;98882.00;;;;4885484;28;111390;-65
2024/03/31 09:40:26;;;;;;;27.80;10.25;;;21.60;74.10;21.90;98889.00;;;;4889859;28;109389;-65
2024/03/31 09:42:51;;;;;;;23.48;9.30;;;21.70;74.00;22.10;98888.00;;;;4886375;28;95582;-65
2024/03/31 09:45:18;;;;;;;19.48;9.65;;;21.80;74.00;22.20;98879.00;;;;4886149;28;113826;-65
2024/03/31 09:47:48;;;;;;;28.58;11.38;;;22.00;73.50;22.40;98889.00;;;;4887283;28;101795;-66
2024/03/31 09:51:02;;;;;;;33.22;11.05;;;22.10;72.90;22.50;98899.00;;;;4886416;28;93045;-65
2024/03/31 09:53:29;;;;;;;19.00;10.07;;;22.20;72.10;22.60;98888.00;;;;4918616;28;99010;-65
2024/03/31 09:56:02;;;;;;;24.92;9.52;;;22.30;71.20;22.60;98875.00;;;;4894114;28;115126;-65
2024/03/31 09:58:40;;;;;;;19.15;8.23;;;22.40;69.40;22.60;98893.00;;;;4886646;28;101967;-64
2024/03/31 10:01:06;;;;;;;26.08;10.18;;;22.40;68.90;22.50;98891.00;;;;4886276;28;93945;-65
2024/03/31 10:03:40;;;;;;;32.85;9.98;;;22.30;67.90;22.50;98889.00;;;;4884115;28;122952;-65
2024/03/31 10:06:08;;;;;;;38.50;10.23;;;22.30;67.80;22.60;98889.00;;;;4857966;28;111326;-65
2024/03/31 10:08:34;;;;;;;16.17;8.23;;;22.40;67.20;22.70;98888.00;;;;4883596;28;93295;-65
2024/03/31 10:11:01;;;;;;;21.88;8.55;;;22.40;66.80;22.80;98890.00;;;;4883886;28;110216;-66
2024/03/31 10:13:28;;;;;;;28.50;8.80;;;22.60;66.70;23.00;98891.00;;;;4885843;28;97410;-64
2024/03/31 10:15:58;;;;;;;26.77;8.60;;;22.70;66.70;23.30;98887.00;;;;4874372;28;94142;-65
2024/03/31 10:18:24;;;;;;;22.27;8.20;;;23.00;67.10;23.60;98887.00;;;;4885684;28;92531;-65
2024/03/31 10:20:51;;;;;;;26.10;9.55;;;23.30;65.80;23.90;98890.00;;;;4888575;28;93154;-65
2024/03/31 10:23:20;;;;;;;34.88;8.70;;;23.50;65.30;24.20;98890.00;;;;4885106;28;97074;-65
2024/03/31 10:25:46;;;;;;;20.05;8.65;;;23.80;63.50;24.40;98895.00;;;;4887972;28;122470;-65
2024/03/31 10:28:16;;;;;;;18.17;8.65;;;24.00;63.10;24.50;98903.00;;;;4891314;28;94071;-65
2024/03/31 10:30:42;;;;;;;24.50;8.80;;;24.10;61.70;24.40;98889.00;;;;4896721;28;108455;-65
2024/03/31 10:33:10;;;;;;;24.30;8.18;;;24.10;60.40;24.50;98897.00;;;;4888927;28;123086;-65
2024/03/31 10:35:39;;;;;;;21.73;8.38;;;24.10;60.70;24.50;98901.00;;;;4888553;28;93363;-65
2024/03/31 10:38:04;;;;;;;33.67;9.80;;;24.20;59.80;24.60;98886.00;;;;4887941;28;93418;-64